Time,TemperatureF,DewpointF,PressureIn,WindDirection,WindDirectionDegrees,WindSpeedMPH,WindSpeedGustMPH,Humidity,HourlyPrecipIn,Conditions,Clouds,dailyrainin,SoftwareType,DateUTC
2013-02-13 00:05:00,35.0,25.0,29.90,West,270,2.0,3.0,71,0.00,,,0.00,TxWx,2013-02-13 05:05:00,
2013-02-13 00:14:00,35.0,26.0,29.90,WNW,292,3.0,4.0,71,0.00,,,0.00,TxWx,2013-02-13 05:14:00,
2013-02-13 00:19:00,35.0,26.0,29.90,South,180,4.0,6.0,71,0.00,,,0.00,TxWx,2013-02-13 05:19:00,
2013-02-13 00:24:00,35.0,26.0,29.90,South,180,2.0,4.0,72,0.00,,,0.00,TxWx,2013-02-13 05:24:00,
2013-02-13 00:30:00,35.0,26.0,29.90,SSE,157,0.0,0.0,72,0.00,,,0.00,TxWx,2013-02-13 05:30:00,
2013-02-13 00:35:00,35.0,26.0,29.91,NW,315,2.0,3.0,72,0.00,,,0.00,TxWx,2013-02-13 05:35:00,
2013-02-13 00:40:00,35.0,26.0,29.90,West,270,3.0,3.0,72,0.00,,,0.00,TxWx,2013-02-13 05:40:00,
2013-02-13 00:45:00,35.0,26.0,29.90,WNW,292,5.0,5.0,72,0.00,,,0.00,TxWx,2013-02-13 05:45:00,
2013-02-13 00:50:00,35.0,26.0,29.91,West,270,3.0,4.0,72,0.00,,,0.00,TxWx,2013-02-13 05:50:00,
2013-02-13 00:55:00,35.0,26.0,29.90,West,270,3.0,3.0,72,0.00,,,0.00,TxWx,2013-02-13 05:55:00,
2013-02-13 01:00:00,35.0,26.0,29.91,SSW,202,1.0,2.0,73,0.00,,,0.00,TxWx,2013-02-13 06:00:00,
2013-02-13 01:05:00,35.0,26.0,29.91,NNW,337,2.0,3.0,73,0.00,,,0.00,TxWx,2013-02-13 06:05:00,
2013-02-13 01:10:00,35.0,26.0,29.91,West,270,2.0,3.0,73,0.00,,,0.00,TxWx,2013-02-13 06:10:00,
2013-02-13 01:15:00,35.0,26.0,29.91,NNW,337,2.0,3.0,73,0.00,,,0.00,TxWx,2013-02-13 06:15:00,
2013-02-13 01:20:00,35.0,26.0,29.90,NW,315,3.0,4.0,73,0.00,,,0.00,TxWx,2013-02-13 06:20:00,
2013-02-13 01:25:00,35.0,26.0,29.90,East,90,0.0,0.0,73,0.00,,,0.00,TxWx,2013-02-13 06:25:00,
2013-02-13 01:30:00,35.0,26.0,29.90,NW,315,3.0,3.0,74,0.00,,,0.00,TxWx,2013-02-13 06:30:00,
2013-02-13 01:35:00,35.0,26.0,29.90,NNW,337,0.0,0.0,74,0.00,,,0.00,TxWx,2013-02-13 06:35:00,
2013-02-13 01:41:00,35.0,26.0,29.91,North,0,1.0,2.0,74,0.00,,,0.00,TxWx,2013-02-13 06:41:00,
2013-02-13 01:46:00,35.0,27.0,29.90,ENE,67,0.0,1.0,74,0.00,,,0.00,TxWx,2013-02-13 06:46:00,
2013-02-13 01:51:00,35.0,27.0,29.91,East,90,0.0,0.0,74,0.00,,,0.00,TxWx,2013-02-13 06:51:00,
2013-02-13 01:56:00,35.0,27.0,29.91,SSE,157,0.0,0.0,74,0.00,,,0.00,TxWx,2013-02-13 06:56:00,
2013-02-13 02:01:00,35.0,27.0,29.91,SSE,157,0.0,0.0,75,0.00,,,0.00,TxWx,2013-02-13 07:01:00,
2013-02-13 02:06:00,34.0,26.0,29.91,SSW,202,4.0,4.0,75,0.00,,,0.00,TxWx,2013-02-13 07:06:00,
2013-02-13 02:11:00,34.0,26.0,29.90,SSW,202,3.0,3.0,75,0.00,,,0.00,TxWx,2013-02-13 07:11:00,
2013-02-13 02:16:00,34.0,26.0,29.91,SSW,202,1.0,1.0,75,0.00,,,0.00,TxWx,2013-02-13 07:16:00,
2013-02-13 02:21:00,34.0,26.0,29.91,SSE,157,0.0,1.0,76,0.00,,,0.00,TxWx,2013-02-13 07:21:00,
2013-02-13 02:26:00,34.0,26.0,29.91,South,180,0.0,1.0,76,0.00,,,0.00,TxWx,2013-02-13 07:26:00,
2013-02-13 02:31:00,34.0,26.0,29.91,NNE,22,1.0,2.0,76,0.00,,,0.00,TxWx,2013-02-13 07:31:00,
2013-02-13 02:36:00,34.0,26.0,29.91,SW,225,5.0,5.0,76,0.00,,,0.00,TxWx,2013-02-13 07:36:00,
2013-02-13 02:41:00,34.0,26.0,29.91,SSE,157,1.0,2.0,76,0.00,,,0.00,TxWx,2013-02-13 07:41:00,
2013-02-13 02:46:00,34.0,26.0,29.91,South,180,1.0,2.0,76,0.00,,,0.00,TxWx,2013-02-13 07:46:00,
2013-02-13 02:51:00,34.0,26.0,29.91,SW,225,5.0,6.0,76,0.00,,,0.00,TxWx,2013-02-13 07:51:00,
2013-02-13 02:57:00,34.0,26.0,29.91,WSW,247,5.0,5.0,76,0.00,,,0.00,TxWx,2013-02-13 07:57:00,
2013-02-13 03:03:00,34.0,26.0,29.91,WSW,247,6.0,7.0,77,0.00,,,0.00,TxWx,2013-02-13 08:03:00,
2013-02-13 03:08:00,34.0,27.0,29.91,SW,225,2.0,3.0,77,0.00,,,0.00,TxWx,2013-02-13 08:08:00,
2013-02-13 03:13:00,34.0,27.0,29.91,South,180,1.0,3.0,77,0.00,,,0.00,TxWx,2013-02-13 08:13:00,
2013-02-13 03:18:00,34.0,27.0,29.91,South,180,3.0,3.0,77,0.00,,,0.00,TxWx,2013-02-13 08:18:00,
2013-02-13 03:23:00,34.0,27.0,29.91,SSW,202,3.0,3.0,78,0.00,,,0.00,TxWx,2013-02-13 08:23:00,
2013-02-13 03:28:00,34.0,27.0,29.91,SW,225,0.0,1.0,78,0.00,,,0.00,TxWx,2013-02-13 08:28:00,
2013-02-13 03:33:00,34.0,27.0,29.91,South,180,2.0,3.0,78,0.00,,,0.00,TxWx,2013-02-13 08:33:00,
2013-02-13 03:38:00,34.0,27.0,29.91,SSW,202,1.0,2.0,78,0.00,,,0.00,TxWx,2013-02-13 08:38:00,
2013-02-13 03:43:00,34.0,27.0,29.91,South,180,0.0,1.0,78,0.00,,,0.00,TxWx,2013-02-13 08:43:00,
2013-02-13 03:48:00,34.0,27.0,29.91,SE,135,0.0,0.0,79,0.00,,,0.00,TxWx,2013-02-13 08:48:00,
2013-02-13 03:53:00,34.0,27.0,29.91,ESE,112,0.0,0.0,79,0.00,,,0.00,TxWx,2013-02-13 08:53:00,
2013-02-13 03:58:00,34.0,27.0,29.91,ESE,112,0.0,0.0,79,0.00,,,0.00,TxWx,2013-02-13 08:58:00,
2013-02-13 04:03:00,34.0,27.0,29.91,ESE,112,0.0,1.0,79,0.00,,,0.00,TxWx,2013-02-13 09:03:00,
2013-02-13 04:08:00,34.0,27.0,29.91,ESE,112,0.0,0.0,79,0.00,,,0.00,TxWx,2013-02-13 09:08:00,
2013-02-13 04:13:00,34.0,27.0,29.91,SE,135,0.0,0.0,79,0.00,,,0.00,TxWx,2013-02-13 09:13:00,
2013-02-13 04:18:00,34.0,27.0,29.90,SE,135,0.0,0.0,79,0.00,,,0.00,TxWx,2013-02-13 09:18:00,
2013-02-13 04:24:00,34.0,27.0,29.90,SE,135,0.0,0.0,79,0.00,,,0.00,TxWx,2013-02-13 09:24:00,
2013-02-13 04:29:00,34.0,27.0,29.90,SSE,157,0.0,0.0,80,0.00,,,0.00,TxWx,2013-02-13 09:29:00,
2013-02-13 04:34:00,34.0,27.0,29.90,SSE,157,0.0,0.0,80,0.00,,,0.00,TxWx,2013-02-13 09:34:00,
2013-02-13 04:39:00,34.0,27.0,29.90,SSE,157,0.0,0.0,80,0.00,,,0.00,TxWx,2013-02-13 09:39:00,
2013-02-13 04:44:00,34.0,27.0,29.90,SSE,157,0.0,0.0,80,0.00,,,0.00,TxWx,2013-02-13 09:44:00,
2013-02-13 04:49:00,34.0,27.0,29.90,ESE,112,0.0,0.0,80,0.00,,,0.00,TxWx,2013-02-13 09:49:00,
2013-02-13 04:54:00,34.0,27.0,29.90,SSE,157,0.0,0.0,80,0.00,,,0.00,TxWx,2013-02-13 09:54:00,
2013-02-13 04:59:00,34.0,27.0,29.90,SE,135,0.0,0.0,80,0.00,,,0.00,TxWx,2013-02-13 09:59:00,
2013-02-13 05:04:00,34.0,27.0,29.90,SSE,157,0.0,0.0,80,0.00,,,0.00,TxWx,2013-02-13 10:04:00,
2013-02-13 05:09:00,34.0,27.0,29.90,SSE,157,0.0,0.0,80,0.00,,,0.00,TxWx,2013-02-13 10:09:00,
2013-02-13 05:14:00,34.0,27.0,29.90,SSE,157,0.0,0.0,80,0.00,,,0.00,TxWx,2013-02-13 10:14:00,
2013-02-13 05:19:00,34.0,27.0,29.90,SSE,157,0.0,0.0,80,0.00,,,0.00,TxWx,2013-02-13 10:19:00,
2013-02-13 05:24:00,34.0,27.0,29.90,SE,135,0.0,1.0,80,0.00,,,0.00,TxWx,2013-02-13 10:24:00,
2013-02-13 05:29:00,34.0,28.0,29.90,SSE,157,0.0,1.0,81,0.00,,,0.00,TxWx,2013-02-13 10:29:00,
2013-02-13 05:34:00,34.0,28.0,29.90,SSE,157,0.0,0.0,81,0.00,,,0.00,TxWx,2013-02-13 10:34:00,
2013-02-13 05:40:00,34.0,28.0,29.89,SSE,157,0.0,0.0,81,0.00,,,0.00,TxWx,2013-02-13 10:40:00,
2013-02-13 05:45:00,34.0,28.0,29.89,SSE,157,0.0,0.0,81,0.00,,,0.00,TxWx,2013-02-13 10:45:00,
2013-02-13 05:50:00,34.0,28.0,29.89,SSE,157,0.0,0.0,81,0.00,,,0.00,TxWx,2013-02-13 10:50:00,
2013-02-13 05:55:00,34.0,28.0,29.89,SSE,157,0.0,0.0,81,0.00,,,0.00,TxWx,2013-02-13 10:55:00,
2013-02-13 06:00:00,34.0,28.0,29.89,SE,135,0.0,0.0,81,0.00,,,0.00,TxWx,2013-02-13 11:00:00,
2013-02-13 06:05:00,34.0,28.0,29.89,ESE,112,0.0,0.0,81,0.00,,,0.00,TxWx,2013-02-13 11:05:00,
2013-02-13 06:10:00,34.0,28.0,29.89,ESE,112,0.0,0.0,82,0.00,,,0.00,TxWx,2013-02-13 11:10:00,
2013-02-13 06:15:00,34.0,28.0,29.89,ESE,112,0.0,0.0,82,0.00,,,0.00,TxWx,2013-02-13 11:15:00,
2013-02-13 06:20:00,34.0,28.0,29.89,ESE,112,0.0,0.0,82,0.00,,,0.00,TxWx,2013-02-13 11:20:00,
2013-02-13 06:25:00,34.0,28.0,29.89,ESE,112,0.0,0.0,82,0.00,,,0.00,TxWx,2013-02-13 11:25:00,
2013-02-13 06:30:00,34.0,28.0,29.89,ESE,112,0.0,0.0,82,0.00,,,0.00,TxWx,2013-02-13 11:30:00,
2013-02-13 06:35:00,34.0,28.0,29.89,East,90,0.0,1.0,83,0.00,,,0.00,TxWx,2013-02-13 11:35:00,
2013-02-13 06:40:00,34.0,28.0,29.89,East,90,0.0,0.0,83,0.00,,,0.00,TxWx,2013-02-13 11:40:00,
2013-02-13 06:46:00,34.0,28.0,29.89,ESE,112,0.0,0.0,83,0.00,,,0.00,TxWx,2013-02-13 11:46:00,
2013-02-13 06:51:00,34.0,28.0,29.89,ESE,112,0.0,0.0,83,0.00,,,0.00,TxWx,2013-02-13 11:51:00,
2013-02-13 06:56:00,33.0,27.0,29.89,NNW,337,0.0,0.0,83,0.00,,,0.00,TxWx,2013-02-13 11:56:00,
2013-02-13 07:01:00,33.0,27.0,29.89,NW,315,0.0,0.0,83,0.00,,,0.00,TxWx,2013-02-13 12:01:00,
2013-02-13 07:06:00,33.0,28.0,29.89,NW,315,0.0,0.0,84,0.00,,,0.00,TxWx,2013-02-13 12:06:00,
2013-02-13 07:11:00,33.0,28.0,29.89,South,180,0.0,0.0,84,0.00,,,0.00,TxWx,2013-02-13 12:11:00,
2013-02-13 07:16:00,33.0,28.0,29.89,SSE,157,0.0,0.0,84,0.00,,,0.00,TxWx,2013-02-13 12:16:00,
2013-02-13 07:21:00,33.0,28.0,29.89,SSE,157,0.0,1.0,84,0.00,,,0.00,TxWx,2013-02-13 12:21:00,
2013-02-13 07:26:00,33.0,28.0,29.89,SSE,157,0.0,0.0,84,0.00,,,0.00,TxWx,2013-02-13 12:26:00,
2013-02-13 07:31:00,33.0,28.0,29.89,SSE,157,0.0,0.0,84,0.00,,,0.00,TxWx,2013-02-13 12:31:00,
2013-02-13 07:36:00,33.0,28.0,29.89,SSE,157,0.0,0.0,84,0.00,,,0.00,TxWx,2013-02-13 12:36:00,
2013-02-13 07:41:00,33.0,28.0,29.89,SSE,157,0.0,0.0,84,0.00,,,0.00,TxWx,2013-02-13 12:41:00,
2013-02-13 07:46:00,33.0,28.0,29.89,SSE,157,0.0,0.0,84,0.00,,,0.00,TxWx,2013-02-13 12:46:00,
2013-02-13 07:51:00,33.0,28.0,29.89,ENE,67,0.0,1.0,85,0.00,,,0.00,TxWx,2013-02-13 12:51:00,
2013-02-13 07:56:00,33.0,28.0,29.89,ENE,67,0.0,0.0,85,0.00,,,0.00,TxWx,2013-02-13 12:56:00,
2013-02-13 08:02:00,33.0,28.0,29.89,ENE,67,1.0,1.0,85,0.00,,,0.00,TxWx,2013-02-13 13:02:00,
2013-02-13 08:07:00,33.0,28.0,29.89,NNE,22,0.0,0.0,85,0.00,,,0.00,TxWx,2013-02-13 13:07:00,
2013-02-13 08:12:00,34.0,29.0,29.89,North,0,1.0,2.0,85,0.00,,,0.00,TxWx,2013-02-13 13:12:00,
2013-02-13 08:17:00,34.0,29.0,29.89,NNE,22,1.0,1.0,85,0.00,,,0.00,TxWx,2013-02-13 13:17:00,
2013-02-13 08:22:00,34.0,29.0,29.89,NNE,22,0.0,0.0,85,0.00,,,0.00,TxWx,2013-02-13 13:22:00,
2013-02-13 08:27:00,34.0,29.0,29.89,ENE,67,0.0,0.0,85,0.00,,,0.00,TxWx,2013-02-13 13:27:00,
2013-02-13 08:32:00,34.0,29.0,29.89,ENE,67,0.0,0.0,84,0.00,,,0.00,TxWx,2013-02-13 13:32:00,
2013-02-13 08:37:00,34.0,29.0,29.89,ENE,67,1.0,2.0,84,0.00,,,0.00,TxWx,2013-02-13 13:37:00,
2013-02-13 08:42:00,34.0,28.0,29.89,ENE,67,2.0,3.0,83,0.00,,,0.00,TxWx,2013-02-13 13:42:00,
2013-02-13 08:47:00,34.0,28.0,29.89,ENE,67,1.0,2.0,83,0.00,,,0.00,TxWx,2013-02-13 13:47:00,
2013-02-13 08:52:00,35.0,29.0,29.88,ENE,67,0.0,1.0,83,0.00,,,0.00,TxWx,2013-02-13 13:52:00,
2013-02-13 08:57:00,35.0,29.0,29.88,NE,45,0.0,0.0,83,0.00,,,0.00,TxWx,2013-02-13 13:57:00,
2013-02-13 09:02:00,35.0,29.0,29.88,NE,45,0.0,1.0,82,0.00,,,0.00,TxWx,2013-02-13 14:02:00,
2013-02-13 09:07:00,35.0,29.0,29.88,NE,45,0.0,0.0,82,0.00,,,0.00,TxWx,2013-02-13 14:07:00,
2013-02-13 09:13:00,35.0,29.0,29.88,NE,45,0.0,1.0,82,0.00,,,0.00,TxWx,2013-02-13 14:13:00,
2013-02-13 09:18:00,35.0,29.0,29.88,ENE,67,0.0,1.0,81,0.00,,,0.00,TxWx,2013-02-13 14:18:00,
2013-02-13 09:23:00,35.0,29.0,29.88,NNE,22,3.0,3.0,81,0.00,,,0.00,TxWx,2013-02-13 14:23:00,
2013-02-13 09:28:00,35.0,29.0,29.88,ESE,112,0.0,0.0,81,0.00,,,0.00,TxWx,2013-02-13 14:28:00,
2013-02-13 09:33:00,35.0,28.0,29.88,South,180,3.0,3.0,80,0.00,,,0.00,TxWx,2013-02-13 14:33:00,
2013-02-13 09:38:00,35.0,28.0,29.87,SSE,157,3.0,3.0,79,0.00,,,0.00,TxWx,2013-02-13 14:38:00,
2013-02-13 09:43:00,35.0,28.0,29.87,South,180,1.0,2.0,77,0.00,,,0.00,TxWx,2013-02-13 14:43:00,
2013-02-13 09:48:00,36.0,28.0,29.87,SSW,202,4.0,5.0,74,0.00,,,0.00,TxWx,2013-02-13 14:48:00,
2013-02-13 09:53:00,36.0,27.0,29.88,SW,225,4.0,5.0,72,0.00,,,0.00,TxWx,2013-02-13 14:53:00,
2013-02-13 09:58:00,36.0,26.0,29.87,SW,225,5.0,6.0,70,0.00,,,0.00,TxWx,2013-02-13 14:58:00,
2013-02-13 10:03:00,36.0,25.0,29.87,SSW,202,3.0,5.0,68,0.00,,,0.00,TxWx,2013-02-13 15:03:00,
2013-02-13 10:08:00,36.0,25.0,29.87,WSW,247,5.0,6.0,67,0.00,,,0.00,TxWx,2013-02-13 15:08:00,
2013-02-13 10:14:00,36.0,25.0,29.87,WSW,247,4.0,5.0,66,0.00,,,0.00,TxWx,2013-02-13 15:14:00,
2013-02-13 10:19:00,36.0,24.0,29.87,SW,225,5.0,6.0,65,0.00,,,0.00,TxWx,2013-02-13 15:19:00,
2013-02-13 10:24:00,36.0,24.0,29.87,WNW,292,3.0,4.0,63,0.00,,,0.00,TxWx,2013-02-13 15:24:00,
2013-02-13 10:29:00,36.0,24.0,29.87,WSW,247,3.0,3.0,64,0.00,,,0.00,TxWx,2013-02-13 15:29:00,
2013-02-13 10:34:00,36.0,24.0,29.87,WNW,292,5.0,5.0,63,0.00,,,0.00,TxWx,2013-02-13 15:34:00,
2013-02-13 10:39:00,36.0,24.0,29.87,WNW,292,5.0,6.0,63,0.00,,,0.00,TxWx,2013-02-13 15:39:00,
2013-02-13 10:44:00,37.0,24.0,29.87,WNW,292,1.0,3.0,62,0.00,,,0.00,TxWx,2013-02-13 15:44:00,
2013-02-13 10:49:00,37.0,24.0,29.87,SW,225,4.0,5.0,61,0.00,,,0.00,TxWx,2013-02-13 15:49:00,
2013-02-13 10:54:00,36.0,23.0,29.87,West,270,3.0,3.0,61,0.00,,,0.00,TxWx,2013-02-13 15:54:00,
2013-02-13 10:59:00,37.0,23.0,29.87,SW,225,5.0,8.0,60,0.00,,,0.00,TxWx,2013-02-13 15:59:00,
2013-02-13 11:04:00,37.0,23.0,29.87,SSW,202,6.0,6.0,58,0.00,,,0.00,TxWx,2013-02-13 16:04:00,
2013-02-13 11:09:00,37.0,23.0,29.87,SSW,202,4.0,4.0,59,0.00,,,0.00,TxWx,2013-02-13 16:09:00,
2013-02-13 11:15:00,37.0,23.0,29.86,WSW,247,7.0,7.0,59,0.00,,,0.00,TxWx,2013-02-13 16:15:00,
2013-02-13 11:20:00,37.0,23.0,29.86,WSW,247,9.0,10.0,59,0.00,,,0.00,TxWx,2013-02-13 16:20:00,
2013-02-13 11:25:00,37.0,23.0,29.86,South,180,6.0,6.0,59,0.00,,,0.00,TxWx,2013-02-13 16:25:00,
2013-02-13 11:30:00,37.0,23.0,29.86,SSW,202,6.0,8.0,59,0.00,,,0.00,TxWx,2013-02-13 16:30:00,
2013-02-13 11:35:00,37.0,23.0,29.86,SW,225,4.0,4.0,59,0.00,,,0.00,TxWx,2013-02-13 16:35:00,
2013-02-13 11:40:00,37.0,23.0,29.85,SSW,202,10.0,10.0,58,0.00,,,0.00,TxWx,2013-02-13 16:40:00,
2013-02-13 11:45:00,37.0,23.0,29.85,SSE,157,5.0,7.0,58,0.00,,,0.00,TxWx,2013-02-13 16:45:00,
2013-02-13 11:50:00,37.0,23.0,29.85,South,180,5.0,6.0,58,0.00,,,0.00,TxWx,2013-02-13 16:50:00,
2013-02-13 11:55:00,37.0,23.0,29.85,WNW,292,3.0,4.0,58,0.00,,,0.00,TxWx,2013-02-13 16:55:00,
2013-02-13 12:00:00,37.0,22.0,29.85,WSW,247,2.0,5.0,58,0.00,,,0.00,TxWx,2013-02-13 17:00:00,
2013-02-13 12:05:00,37.0,22.0,29.84,SE,135,0.0,0.0,58,0.00,,,0.00,TxWx,2013-02-13 17:05:00,
2013-02-13 12:10:00,38.0,23.0,29.84,NW,315,2.0,2.0,58,0.00,,,0.00,TxWx,2013-02-13 17:10:00,
2013-02-13 12:16:00,37.0,22.0,29.84,West,270,4.0,5.0,57,0.00,,,0.00,TxWx,2013-02-13 17:16:00,
2013-02-13 12:17:00,34.0,24.0,29.74,East,90,0.0,0.0,68,0.00,,,0.00,TxWx,2013-02-13 17:17:00,
2013-02-13 12:21:00,37.0,22.0,29.84,SW,225,3.0,3.0,57,0.00,,,0.00,TxWx,2013-02-13 17:21:00,
2013-02-13 12:26:00,38.0,23.0,29.84,ESE,112,0.0,1.0,58,0.00,,,0.00,TxWx,2013-02-13 17:26:00,
2013-02-13 12:31:00,38.0,23.0,29.84,West,270,6.0,7.0,57,0.00,,,0.00,TxWx,2013-02-13 17:31:00,
2013-02-13 12:36:00,38.0,23.0,29.84,WSW,247,3.0,5.0,57,0.00,,,0.00,TxWx,2013-02-13 17:36:00,
2013-02-13 12:41:00,38.0,23.0,29.84,South,180,3.0,3.0,57,0.00,,,0.00,TxWx,2013-02-13 17:41:00,
2013-02-13 12:46:00,38.0,23.0,29.84,South,180,2.0,3.0,57,0.00,,,0.00,TxWx,2013-02-13 17:46:00,
2013-02-13 12:51:00,38.0,23.0,29.83,WSW,247,7.0,8.0,58,0.00,,,0.00,TxWx,2013-02-13 17:51:00,
2013-02-13 12:56:00,38.0,23.0,29.83,SSE,157,0.0,0.0,57,0.00,,,0.00,TxWx,2013-02-13 17:56:00,
2013-02-13 13:01:00,38.0,23.0,29.83,ESE,112,0.0,0.0,57,0.00,,,0.00,TxWx,2013-02-13 18:01:00,
2013-02-13 13:06:00,39.0,24.0,29.82,ENE,67,0.0,0.0,57,0.00,,,0.00,TxWx,2013-02-13 18:06:00,
2013-02-13 13:11:00,40.0,24.0,29.82,WSW,247,6.0,9.0,55,0.00,,,0.00,TxWx,2013-02-13 18:11:00,
2013-02-13 13:17:00,39.0,23.0,29.82,South,180,1.0,2.0,55,0.00,,,0.00,TxWx,2013-02-13 18:17:00,
2013-02-13 13:22:00,39.0,22.0,29.82,WNW,292,6.0,6.0,53,0.00,,,0.00,TxWx,2013-02-13 18:22:00,
2013-02-13 13:27:00,39.0,22.0,29.82,NNE,22,2.0,3.0,53,0.00,,,0.00,TxWx,2013-02-13 18:27:00,
2013-02-13 13:32:00,39.0,23.0,29.81,West,270,1.0,2.0,54,0.00,,,0.00,TxWx,2013-02-13 18:32:00,
2013-02-13 13:37:00,39.0,22.0,29.81,West,270,4.0,4.0,53,0.00,,,0.00,TxWx,2013-02-13 18:37:00,
2013-02-13 13:42:00,39.0,22.0,29.81,WSW,247,2.0,3.0,53,0.00,,,0.00,TxWx,2013-02-13 18:42:00,
2013-02-13 13:47:00,40.0,23.0,29.80,NNW,337,6.0,6.0,52,0.00,,,0.00,TxWx,2013-02-13 18:47:00,
2013-02-13 13:52:00,39.0,22.0,29.80,WSW,247,8.0,8.0,52,0.00,,,0.00,TxWx,2013-02-13 18:52:00,
2013-02-13 13:57:00,39.0,22.0,29.80,SSE,157,4.0,4.0,52,0.00,,,0.00,TxWx,2013-02-13 18:57:00,
2013-02-13 14:00:00,33.0,24.0,29.73,NNW,337,0.0,0.0,72,0.00,,,0.00,TxWx,2013-02-13 19:00:00,
2013-02-13 14:01:00,33.0,24.0,29.73,NNW,337,0.0,0.0,72,0.00,,,0.00,TxWx,2013-02-13 19:01:00,
2013-02-13 14:02:00,40.0,23.0,29.79,ESE,112,1.0,1.0,53,0.00,,,0.00,TxWx,2013-02-13 19:02:00,
2013-02-13 14:03:00,33.0,24.0,29.73,North,0,0.0,0.0,72,0.00,,,0.00,TxWx,2013-02-13 19:03:00,
2013-02-13 14:04:00,33.0,24.0,29.73,North,0,0.0,0.0,72,0.00,,,0.00,TxWx,2013-02-13 19:04:00,
2013-02-13 14:06:00,33.0,24.0,29.73,ENE,67,0.0,0.0,72,0.00,,,0.00,TxWx,2013-02-13 19:06:00,
2013-02-13 14:07:00,40.0,23.0,29.79,West,270,5.0,6.0,52,0.00,,,0.00,TxWx,2013-02-13 19:07:00,
2013-02-13 14:08:00,33.0,24.0,29.73,NNE,22,0.0,0.0,72,0.00,,,0.00,TxWx,2013-02-13 19:08:00,
2013-02-13 14:09:00,33.0,24.0,29.73,North,0,0.0,0.0,72,0.00,,,0.00,TxWx,2013-02-13 19:09:00,
2013-02-13 14:10:00,33.0,24.0,29.72,NW,315,0.0,0.0,72,0.00,,,0.00,TxWx,2013-02-13 19:10:00,
2013-02-13 14:11:00,33.0,24.0,29.73,NE,45,0.0,0.0,72,0.00,,,0.00,TxWx,2013-02-13 19:11:00,
2013-02-13 14:12:00,40.0,23.0,29.79,ESE,112,0.0,1.0,52,0.00,,,0.00,TxWx,2013-02-13 19:12:00,
2013-02-13 14:17:00,40.0,22.0,29.78,WSW,247,4.0,4.0,51,0.00,,,0.00,TxWx,2013-02-13 19:17:00,
2013-02-13 14:22:00,40.0,22.0,29.78,NE,45,3.0,3.0,51,0.00,,,0.00,TxWx,2013-02-13 19:22:00,
2013-02-13 14:27:00,40.0,22.0,29.78,ENE,67,0.0,0.0,51,0.00,,,0.00,TxWx,2013-02-13 19:27:00,
2013-02-13 14:28:00,33.0,24.0,29.73,NE,45,0.0,0.0,72,0.00,,,0.00,TxWx,2013-02-13 19:28:00,
2013-02-13 14:29:00,33.0,24.0,29.73,NE,45,0.0,0.0,72,0.00,,,0.00,TxWx,2013-02-13 19:29:00,
2013-02-13 14:32:00,41.0,23.0,29.78,ENE,67,3.0,3.0,51,0.00,,,0.00,TxWx,2013-02-13 19:32:00,
2013-02-13 14:38:00,40.0,22.0,29.78,ESE,112,5.0,5.0,50,0.00,,,0.00,TxWx,2013-02-13 19:38:00,
2013-02-13 14:43:00,40.0,22.0,29.78,NE,45,2.0,2.0,51,0.00,,,0.00,TxWx,2013-02-13 19:43:00,
2013-02-13 14:48:00,40.0,22.0,29.77,WNW,292,6.0,7.0,51,0.00,,,0.00,TxWx,2013-02-13 19:48:00,
2013-02-13 14:53:00,40.0,23.0,29.78,NNE,22,1.0,2.0,52,0.00,,,0.00,TxWx,2013-02-13 19:53:00,
2013-02-13 14:58:00,40.0,22.0,29.77,NW,315,3.0,3.0,51,0.00,,,0.00,TxWx,2013-02-13 19:58:00,
2013-02-13 15:03:00,40.0,22.0,29.77,NW,315,5.0,6.0,51,0.00,,,0.00,TxWx,2013-02-13 20:03:00,
2013-02-13 15:08:00,40.0,22.0,29.77,North,0,2.0,4.0,51,0.00,,,0.00,TxWx,2013-02-13 20:08:00,
2013-02-13 15:13:00,40.0,23.0,29.77,North,0,3.0,3.0,52,0.00,,,0.00,TxWx,2013-02-13 20:13:00,
2013-02-13 15:18:00,40.0,23.0,29.77,East,90,1.0,1.0,52,0.00,,,0.00,TxWx,2013-02-13 20:18:00,
2013-02-13 15:24:00,40.0,23.0,29.77,NE,45,0.0,0.0,52,0.00,,,0.00,TxWx,2013-02-13 20:24:00,
2013-02-13 15:29:00,40.0,23.0,29.77,ESE,112,0.0,0.0,53,0.00,,,0.00,TxWx,2013-02-13 20:29:00,
2013-02-13 15:34:00,40.0,23.0,29.77,NNW,337,3.0,3.0,53,0.00,,,0.00,TxWx,2013-02-13 20:34:00,
2013-02-13 15:39:00,40.0,23.0,29.77,NNW,337,3.0,3.0,52,0.00,,,0.00,TxWx,2013-02-13 20:39:00,
2013-02-13 15:44:00,40.0,23.0,29.77,WSW,247,3.0,5.0,52,0.00,,,0.00,TxWx,2013-02-13 20:44:00,
2013-02-13 15:49:00,40.0,23.0,29.77,North,0,2.0,2.0,52,0.00,,,0.00,TxWx,2013-02-13 20:49:00,
2013-02-13 15:54:00,40.0,23.0,29.77,NE,45,2.0,3.0,52,0.00,,,0.00,TxWx,2013-02-13 20:54:00,
2013-02-13 15:59:00,40.0,23.0,29.76,NE,45,2.0,3.0,52,0.00,,,0.00,TxWx,2013-02-13 20:59:00,
2013-02-13 16:04:00,40.0,23.0,29.76,North,0,3.0,4.0,52,0.00,,,0.00,TxWx,2013-02-13 21:04:00,
2013-02-13 16:06:00,31.0,24.0,29.77,ENE,67,0.0,0.0,77,0.00,,,0.00,TxWx,2013-02-13 21:06:00,
2013-02-13 16:07:00,31.0,24.0,29.77,ENE,67,0.0,0.0,77,0.00,,,0.00,TxWx,2013-02-13 21:07:00,
2013-02-13 16:08:00,31.0,24.0,29.77,ENE,67,0.0,0.0,77,0.00,,,0.00,TxWx,2013-02-13 21:08:00,
2013-02-13 16:09:00,40.0,23.0,29.76,North,0,2.0,3.0,52,0.00,,,0.00,TxWx,2013-02-13 21:09:00,
2013-02-13 16:14:00,40.0,23.0,29.76,ENE,67,0.0,0.0,52,0.00,,,0.00,TxWx,2013-02-13 21:14:00,
2013-02-13 16:20:00,40.0,23.0,29.76,NNW,337,1.0,3.0,52,0.00,,,0.00,TxWx,2013-02-13 21:20:00,
2013-02-13 16:25:00,40.0,23.0,29.76,NNW,337,3.0,3.0,52,0.00,,,0.00,TxWx,2013-02-13 21:25:00,
2013-02-13 16:30:00,40.0,23.0,29.76,North,0,3.0,3.0,52,0.00,,,0.00,TxWx,2013-02-13 21:30:00,
2013-02-13 16:35:00,40.0,23.0,29.75,NNE,22,2.0,5.0,53,0.00,,,0.00,TxWx,2013-02-13 21:35:00,
2013-02-13 16:40:00,40.0,23.0,29.75,North,0,3.0,4.0,53,0.00,,,0.00,TxWx,2013-02-13 21:40:00,
2013-02-13 16:45:00,39.0,22.0,29.75,North,0,3.0,3.0,53,0.00,,,0.00,TxWx,2013-02-13 21:45:00,
2013-02-13 16:50:00,39.0,23.0,29.74,NNE,22,3.0,3.0,54,0.00,,,0.00,TxWx,2013-02-13 21:50:00,
2013-02-13 16:55:00,39.0,23.0,29.74,NNW,337,3.0,3.0,54,0.00,,,0.00,TxWx,2013-02-13 21:55:00,
2013-02-13 17:00:00,39.0,23.0,29.74,North,0,1.0,3.0,54,0.00,,,0.00,TxWx,2013-02-13 22:00:00,
2013-02-13 17:04:00,31.0,23.0,29.79,ESE,112,0.0,0.0,74,0.00,,,0.00,TxWx,2013-02-13 22:04:00,
2013-02-13 17:05:00,39.0,23.0,29.74,NNW,337,2.0,3.0,54,0.00,,,0.00,TxWx,2013-02-13 22:05:00,
2013-02-13 17:10:00,39.0,23.0,29.74,North,0,3.0,4.0,54,0.00,,,0.00,TxWx,2013-02-13 22:10:00,
2013-02-13 17:15:00,39.0,23.0,29.73,NW,315,3.0,3.0,54,0.00,,,0.00,TxWx,2013-02-13 22:15:00,
2013-02-13 17:17:00,30.0,22.0,29.79,ESE,112,0.0,0.0,75,0.00,,,0.00,TxWx,2013-02-13 22:17:00,
2013-02-13 17:18:00,30.0,22.0,29.79,ESE,112,0.0,0.0,75,0.00,,,0.00,TxWx,2013-02-13 22:18:00,
2013-02-13 17:21:00,39.0,23.0,29.73,NW,315,1.0,2.0,55,0.00,,,0.00,TxWx,2013-02-13 22:21:00,
2013-02-13 17:26:00,38.0,22.0,29.73,NNW,337,2.0,3.0,55,0.00,,,0.00,TxWx,2013-02-13 22:26:00,
2013-02-13 17:31:00,38.0,22.0,29.74,WNW,292,1.0,2.0,56,0.00,,,0.00,TxWx,2013-02-13 22:31:00,
2013-02-13 17:36:00,38.0,23.0,29.74,NW,315,1.0,2.0,56,0.00,,,0.00,TxWx,2013-02-13 22:36:00,
2013-02-13 17:41:00,37.0,22.0,29.74,West,270,0.0,0.0,57,0.00,,,0.00,TxWx,2013-02-13 22:41:00,
2013-02-13 17:46:00,37.0,23.0,29.74,WNW,292,0.0,0.0,58,0.00,,,0.00,TxWx,2013-02-13 22:46:00,
2013-02-13 17:51:00,36.0,22.0,29.74,NNW,337,0.0,0.0,59,0.00,,,0.00,TxWx,2013-02-13 22:51:00,
2013-02-13 17:56:00,36.0,22.0,29.75,South,180,0.0,0.0,60,0.00,,,0.00,TxWx,2013-02-13 22:56:00,
2013-02-13 18:01:00,36.0,23.0,29.74,WNW,292,0.0,0.0,61,0.00,,,0.00,TxWx,2013-02-13 23:01:00,
2013-02-13 18:07:00,35.0,22.0,29.75,NE,45,0.0,0.0,62,0.00,,,0.00,TxWx,2013-02-13 23:07:00,
2013-02-13 18:12:00,35.0,22.0,29.74,West,270,0.0,0.0,63,0.00,,,0.00,TxWx,2013-02-13 23:12:00,
2013-02-13 18:17:00,35.0,23.0,29.74,South,180,0.0,0.0,64,0.00,,,0.00,TxWx,2013-02-13 23:17:00,
2013-02-13 18:22:00,34.0,22.0,29.74,West,270,0.0,0.0,65,0.00,,,0.00,TxWx,2013-02-13 23:22:00,
2013-02-13 18:27:00,34.0,22.0,29.74,West,270,3.0,3.0,65,0.00,,,0.00,TxWx,2013-02-13 23:27:00,
2013-02-13 18:32:00,35.0,23.0,29.74,WNW,292,5.0,5.0,65,0.00,,,0.00,TxWx,2013-02-13 23:32:00,
2013-02-13 18:37:00,35.0,23.0,29.73,WNW,292,5.0,5.0,65,0.00,,,0.00,TxWx,2013-02-13 23:37:00,
2013-02-13 18:42:00,35.0,23.0,29.73,NW,315,2.0,3.0,65,0.00,,,0.00,TxWx,2013-02-13 23:42:00,
2013-02-13 18:47:00,35.0,23.0,29.73,ENE,67,0.0,1.0,65,0.00,,,0.00,TxWx,2013-02-13 23:47:00,
2013-02-13 18:52:00,34.0,23.0,29.73,ENE,67,0.0,1.0,66,0.00,,,0.00,TxWx,2013-02-13 23:52:00,
2013-02-13 18:57:00,34.0,23.0,29.73,NE,45,0.0,1.0,67,0.00,,,0.00,TxWx,2013-02-13 23:57:00,
2013-02-13 19:02:00,34.0,24.0,29.74,NW,315,1.0,1.0,68,0.00,,,0.00,TxWx,2013-02-14 00:02:00,
2013-02-13 19:08:00,34.0,24.0,29.74,SSE,157,0.0,1.0,69,0.00,,,0.00,TxWx,2013-02-14 00:08:00,
2013-02-13 19:13:00,34.0,24.0,29.74,North,0,0.0,1.0,69,0.00,,,0.00,TxWx,2013-02-14 00:13:00,
2013-02-13 19:18:00,34.0,24.0,29.74,NW,315,5.0,5.0,70,0.00,,,0.00,TxWx,2013-02-14 00:18:00,
2013-02-13 19:23:00,34.0,24.0,29.74,NNW,337,4.0,4.0,69,0.00,,,0.00,TxWx,2013-02-14 00:23:00,
2013-02-13 19:28:00,35.0,24.0,29.74,North,0,4.0,4.0,67,0.00,,,0.00,TxWx,2013-02-14 00:28:00,
2013-02-13 19:33:00,35.0,24.0,29.74,NW,315,3.0,4.0,66,0.00,,,0.00,TxWx,2013-02-14 00:33:00,
2013-02-13 19:38:00,35.0,24.0,29.74,NW,315,3.0,3.0,66,0.00,,,0.00,TxWx,2013-02-14 00:38:00,
2013-02-13 19:43:00,35.0,23.0,29.74,North,0,2.0,3.0,65,0.00,,,0.00,TxWx,2013-02-14 00:43:00,
2013-02-13 19:48:00,35.0,23.0,29.74,North,0,2.0,2.0,65,0.00,,,0.00,TxWx,2013-02-14 00:48:00,
2013-02-13 19:53:00,36.0,23.0,29.75,NW,315,3.0,5.0,64,0.00,,,0.00,TxWx,2013-02-14 00:53:00,
2013-02-13 19:58:00,36.0,24.0,29.75,North,0,2.0,3.0,64,0.00,,,0.00,TxWx,2013-02-14 00:58:00,
2013-02-13 20:03:00,35.0,23.0,29.75,NNW,337,5.0,5.0,64,0.00,,,0.00,TxWx,2013-02-14 01:03:00,
2013-02-13 20:08:00,35.0,23.0,29.75,North,0,4.0,4.0,64,0.00,,,0.00,TxWx,2013-02-14 01:08:00,
2013-02-13 20:13:00,35.0,24.0,29.75,West,270,2.0,3.0,64,0.00,,,0.00,TxWx,2013-02-14 01:13:00,
2013-02-13 20:19:00,35.0,24.0,29.75,North,0,2.0,3.0,64,0.00,,,0.00,TxWx,2013-02-14 01:19:00,
2013-02-13 20:24:00,35.0,23.0,29.76,NNE,22,2.0,2.0,64,0.00,,,0.00,TxWx,2013-02-14 01:24:00,
2013-02-13 20:29:00,35.0,23.0,29.75,ENE,67,0.0,0.0,64,0.00,,,0.00,TxWx,2013-02-14 01:29:00,
2013-02-13 20:34:00,35.0,23.0,29.75,NNE,22,0.0,0.0,64,0.00,,,0.00,TxWx,2013-02-14 01:34:00,
2013-02-13 20:39:00,35.0,23.0,29.75,NE,45,3.0,3.0,64,0.00,,,0.00,TxWx,2013-02-14 01:39:00,
2013-02-13 20:44:00,35.0,23.0,29.75,NNW,337,3.0,3.0,64,0.00,,,0.00,TxWx,2013-02-14 01:44:00,
2013-02-13 20:49:00,35.0,23.0,29.75,NNW,337,3.0,5.0,64,0.00,,,0.00,TxWx,2013-02-14 01:49:00,
2013-02-13 20:54:00,35.0,23.0,29.75,NNW,337,3.0,3.0,64,0.00,,,0.00,TxWx,2013-02-14 01:54:00,
2013-02-13 20:59:00,35.0,23.0,29.75,NNE,22,1.0,1.0,64,0.00,,,0.00,TxWx,2013-02-14 01:59:00,
2013-02-13 21:04:00,35.0,23.0,29.75,NNE,22,1.0,3.0,64,0.00,,,0.00,TxWx,2013-02-14 02:04:00,
2013-02-13 21:09:00,35.0,23.0,29.76,NNW,337,2.0,2.0,64,0.00,,,0.00,TxWx,2013-02-14 02:09:00,
2013-02-13 21:14:00,35.0,23.0,29.75,North,0,2.0,3.0,64,0.00,,,0.00,TxWx,2013-02-14 02:14:00,
2013-02-13 21:19:00,35.0,23.0,29.75,NNW,337,2.0,3.0,64,0.00,,,0.00,TxWx,2013-02-14 02:19:00,
2013-02-13 21:24:00,35.0,23.0,29.75,NNE,22,1.0,1.0,64,0.00,,,0.00,TxWx,2013-02-14 02:24:00,
2013-02-13 21:30:00,35.0,23.0,29.75,NNE,22,1.0,2.0,64,0.00,,,0.00,TxWx,2013-02-14 02:30:00,
2013-02-13 21:35:00,35.0,23.0,29.75,NNW,337,3.0,3.0,64,0.00,,,0.00,TxWx,2013-02-14 02:35:00,
2013-02-13 21:40:00,35.0,23.0,29.75,NNE,22,1.0,2.0,65,0.00,,,0.00,TxWx,2013-02-14 02:40:00,
2013-02-13 21:45:00,35.0,23.0,29.75,NE,45,0.0,0.0,65,0.00,,,0.00,TxWx,2013-02-14 02:45:00,
2013-02-13 21:50:00,35.0,24.0,29.75,NE,45,0.0,1.0,66,0.00,,,0.00,TxWx,2013-02-14 02:50:00,
2013-02-13 21:55:00,35.0,24.0,29.75,NE,45,0.0,0.0,67,0.00,,,0.00,TxWx,2013-02-14 02:55:00,
2013-02-13 22:00:00,34.0,23.0,29.74,North,0,1.0,2.0,67,0.00,,,0.00,TxWx,2013-02-14 03:00:00,
2013-02-13 22:05:00,34.0,23.0,29.74,NNE,22,1.0,1.0,68,0.00,,,0.00,TxWx,2013-02-14 03:05:00,
2013-02-13 22:10:00,34.0,23.0,29.74,East,90,0.0,0.0,68,0.00,,,0.00,TxWx,2013-02-14 03:10:00,
2013-02-13 22:17:00,34.0,24.0,29.74,NE,45,0.0,0.0,68,0.00,,,0.00,TxWx,2013-02-14 03:17:00,
2013-02-13 22:22:00,34.0,24.0,29.74,ENE,67,0.0,0.0,68,0.00,,,0.00,TxWx,2013-02-14 03:22:00,
2013-02-13 22:27:00,34.0,24.0,29.74,NW,315,0.0,0.0,68,0.00,,,0.00,TxWx,2013-02-14 03:27:00,
2013-02-13 22:32:00,34.0,24.0,29.74,WSW,247,0.0,0.0,68,0.00,,,0.00,TxWx,2013-02-14 03:32:00,
2013-02-13 22:37:00,34.0,24.0,29.74,NW,315,1.0,1.0,68,0.00,,,0.00,TxWx,2013-02-14 03:37:00,
2013-02-13 22:42:00,34.0,23.0,29.74,SSE,157,0.0,1.0,68,0.00,,,0.00,TxWx,2013-02-14 03:42:00,
2013-02-13 22:47:00,34.0,23.0,29.74,NNW,337,0.0,1.0,68,0.00,,,0.00,TxWx,2013-02-14 03:47:00,
2013-02-13 22:52:00,34.0,23.0,29.74,South,180,0.0,1.0,68,0.00,,,0.00,TxWx,2013-02-14 03:52:00,
2013-02-13 22:58:00,34.0,23.0,29.74,South,180,0.0,0.0,68,0.00,,,0.00,TxWx,2013-02-14 03:58:00,
2013-02-13 23:03:00,34.0,23.0,29.74,ESE,112,0.0,0.0,68,0.00,,,0.00,TxWx,2013-02-14 04:03:00,
2013-02-13 23:08:00,34.0,24.0,29.74,East,90,0.0,0.0,68,0.00,,,0.00,TxWx,2013-02-14 04:08:00,
2013-02-13 23:13:00,34.0,24.0,29.74,East,90,0.0,0.0,68,0.00,,,0.00,TxWx,2013-02-14 04:13:00,
2013-02-13 23:18:00,34.0,24.0,29.73,ESE,112,0.0,0.0,69,0.00,,,0.00,TxWx,2013-02-14 04:18:00,
2013-02-13 23:23:00,34.0,24.0,29.73,ESE,112,0.0,0.0,69,0.00,,,0.00,TxWx,2013-02-14 04:23:00,
2013-02-13 23:28:00,34.0,24.0,29.73,ESE,112,0.0,0.0,70,0.00,,,0.00,TxWx,2013-02-14 04:28:00,
2013-02-13 23:33:00,33.0,23.0,29.73,ESE,112,0.0,0.0,70,0.00,,,0.00,TxWx,2013-02-14 04:33:00,
2013-02-13 23:38:00,33.0,23.0,29.73,ESE,112,0.0,0.0,70,0.00,,,0.00,TxWx,2013-02-14 04:38:00,
2013-02-13 23:43:00,33.0,23.0,29.73,ESE,112,0.0,0.0,71,0.00,,,0.00,TxWx,2013-02-14 04:43:00,
2013-02-13 23:48:00,33.0,24.0,29.73,SSE,157,0.0,0.0,71,0.00,,,0.00,TxWx,2013-02-14 04:48:00,
2013-02-13 23:53:00,33.0,24.0,29.73,SSE,157,0.0,0.0,72,0.00,,,0.00,TxWx,2013-02-14 04:53:00,
2013-02-13 23:58:00,33.0,24.0,29.73,NNW,337,0.0,0.0,72,0.00,,,0.00,TxWx,2013-02-14 04:58:00,